sensor_id;sensor_type;location;lat;lon;timestamp;temperature;humidity
30473;DHT22;17263;48.160;11.452;2022-11-15T00:00:09;4.60;99.90
30473;DHT22;17263;48.160;11.452;2022-11-15T00:02:35;4.50;99.90
30473;DHT22;17263;48.160;11.452;2022-11-15T00:05:01;4.50;99.90
30473;DHT22;17263;48.160;11.452;2022-11-15T00:07:27;4.50;99.90
30473;DHT22;17263;48.160;11.452;2022-11-15T00:09:53;4.40;99.90
30473;DHT22;17263;48.160;11.452;2022-11-15T00:12:19;4.40;99.90
30473;DHT22;17263;48.160;11.452;2022-11-15T00:14:45;4.40;99.90
30473;DHT22;17263;48.160;11.452;2022-11-15T00:17:11;4.30;99.90
30473;DHT22;17263;48.160;11.452;2022-11-15T00:19:37;4.30;99.90
30473;DHT22;17263;48.160;11.452;2022-11-15T00:22:03;4.30;99.90
30473;DHT22;17263;48.160;11.452;2022-11-15T00:24:29;4.20;99.90
30473;DHT22;17263;48.160;11.452;2022-11-15T00:26:55;4.20;99.90
30473;DHT22;17263;48.160;11.452;2022-11-15T00:29:21;4.20;99.90
30473;DHT22;17263;48.160;11.452;2022-11-15T00:31:48;4.20;99.90
30473;DHT22;17263;48.160;11.452;2022-11-15T00:34:14;4.20;99.90
30473;DHT22;17263;48.160;11.452;2022-11-15T00:36:40;4.20;99.90
30473;DHT22;17263;48.160;11.452;2022-11-15T00:39:06;4.20;99.90
30473;DHT22;17263;48.160;11.452;2022-11-15T00:41:32;4.20;99.90
30473;DHT22;17263;48.160;11.452;2022-11-15T00:43:58;4.20;99.90
30473;DHT22;17263;48.160;11.452;2022-11-15T00:46:24;4.30;99.90
30473;DHT22;17263;48.160;11.452;2022-11-15T00:48:50;4.30;99.90
30473;DHT22;17263;48.160;11.452;2022-11-15T00:51:16;4.30;99.90
30473;DHT22;17263;48.160;11.452;2022-11-15T00:53:42;4.30;99.90
30473;DHT22;17263;48.160;11.452;2022-11-15T00:56:08;4.30;99.90
30473;DHT22;17263;48.160;11.452;2022-11-15T00:58:34;4.30;99.90
30473;DHT22;17263;48.160;11.452;2022-11-15T01:01:12;4.40;99.90
30473;DHT22;17263;48.160;11.452;2022-11-15T01:03:39;4.40;99.90
30473;DHT22;17263;48.160;11.452;2022-11-15T01:06:07;4.40;99.90
30473;DHT22;17263;48.160;11.452;2022-11-15T01:08:33;4.40;99.90
30473;DHT22;17263;48.160;11.452;2022-11-15T01:11:11;4.40;99.90
30473;DHT22;17263;48.160;11.452;2022-11-15T01:13:38;4.40;99.90
30473;DHT22;17263;48.160;11.452;2022-11-15T01:16:13;4.40;99.90
30473;DHT22;17263;48.160;11.452;2022-11-15T01:18:40;4.40;99.90
30473;DHT22;17263;48.160;11.452;2022-11-15T01:21:11;4.40;99.90
30473;DHT22;17263;48.160;11.452;2022-11-15T01:23:37;4.30;99.90
30473;DHT22;17263;48.160;11.452;2022-11-15T01:26:06;4.30;99.90
30473;DHT22;17263;48.160;11.452;2022-11-15T01:28:34;4.30;99.90
30473;DHT22;17263;48.160;11.452;2022-11-15T01:31:06;4.20;99.90
30473;DHT22;17263;48.160;11.452;2022-11-15T01:33:35;4.20;99.90
30473;DHT22;17263;48.160;11.452;2022-11-15T01:36:07;4.20;99.90
30473;DHT22;17263;48.160;11.452;2022-11-15T01:38:34;4.10;99.90
30473;DHT22;17263;48.160;11.452;2022-11-15T01:41:00;4.10;99.90
30473;DHT22;17263;48.160;11.452;2022-11-15T01:43:31;4.10;99.90
30473;DHT22;17263;48.160;11.452;2022-11-15T01:48:57;4.00;99.90
30473;DHT22;17263;48.160;11.452;2022-11-15T01:51:26;3.90;99.90
30473;DHT22;17263;48.160;11.452;2022-11-15T01:53:55;3.90;99.90
30473;DHT22;17263;48.160;11.452;2022-11-15T01:56:25;3.90;99.90
30473;DHT22;17263;48.160;11.452;2022-11-15T01:58:55;3.80;99.90
30473;DHT22;17263;48.160;11.452;2022-11-15T02:01:24;3.70;99.90
30473;DHT22;17263;48.160;11.452;2022-11-15T02:04:02;3.70;99.90
30473;DHT22;17263;48.160;11.452;2022-11-15T02:06:34;3.70;99.90
30473;DHT22;17263;48.160;11.452;2022-11-15T02:09:00;3.70;99.90
30473;DHT22;17263;48.160;11.452;2022-11-15T02:11:27;3.70;99.90
30473;DHT22;17263;48.160;11.452;2022-11-15T02:13:54;3.70;99.90
30473;DHT22;17263;48.160;11.452;2022-11-15T02:16:48;3.60;99.90
30473;DHT22;17263;48.160;11.452;2022-11-15T02:19:38;3.60;99.90
30473;DHT22;17263;48.160;11.452;2022-11-15T02:23:04;3.60;99.90
30473;DHT22;17263;48.160;11.452;2022-11-15T02:25:24;3.50;99.90
30473;DHT22;17263;48.160;11.452;2022-11-15T02:28:21;3.50;99.90
30473;DHT22;17263;48.160;11.452;2022-11-15T02:33:59;3.40;99.90
30473;DHT22;17263;48.160;11.452;2022-11-15T02:39:06;3.40;99.90
30473;DHT22;17263;48.160;11.452;2022-11-15T02:41:42;3.40;99.90
30473;DHT22;17263;48.160;11.452;2022-11-15T02:46:43;3.40;99.90
30473;DHT22;17263;48.160;11.452;2022-11-15T02:49:32;3.40;99.90
30473;DHT22;17263;48.160;11.452;2022-11-15T02:51:58;3.40;99.90
30473;DHT22;17263;48.160;11.452;2022-11-15T02:54:28;3.40;99.90
30473;DHT22;17263;48.160;11.452;2022-11-15T02:57:06;3.40;99.90
30473;DHT22;17263;48.160;11.452;2022-11-15T03:03:08;3.30;99.90
30473;DHT22;17263;48.160;11.452;2022-11-15T03:08:26;3.30;99.90
30473;DHT22;17263;48.160;11.452;2022-11-15T03:11:13;3.30;99.90
30473;DHT22;17263;48.160;11.452;2022-11-15T03:13:57;3.20;99.90
30473;DHT22;17263;48.160;11.452;2022-11-15T03:19:18;3.20;99.90
30473;DHT22;17263;48.160;11.452;2022-11-15T03:21:47;3.20;99.90
30473;DHT22;17263;48.160;11.452;2022-11-15T03:24:16;3.20;99.90
30473;DHT22;17263;48.160;11.452;2022-11-15T03:26:44;3.20;99.90
30473;DHT22;17263;48.160;11.452;2022-11-15T03:29:17;3.20;99.90
30473;DHT22;17263;48.160;11.452;2022-11-15T03:31:49;3.20;99.90
30473;DHT22;17263;48.160;11.452;2022-11-15T03:34:27;3.10;99.90
30473;DHT22;17263;48.160;11.452;2022-11-15T03:36:54;3.10;99.90
30473;DHT22;17263;48.160;11.452;2022-11-15T03:39:21;3.20;99.90
30473;DHT22;17263;48.160;11.452;2022-11-15T03:44:42;3.10;99.90
30473;DHT22;17263;48.160;11.452;2022-11-15T03:47:31;3.10;99.90
30473;DHT22;17263;48.160;11.452;2022-11-15T03:50:27;3.00;99.90
30473;DHT22;17263;48.160;11.452;2022-11-15T03:52:54;3.00;99.90
30473;DHT22;17263;48.160;11.452;2022-11-15T03:55:21;3.00;99.90
30473;DHT22;17263;48.160;11.452;2022-11-15T03:57:54;3.00;99.90
30473;DHT22;17263;48.160;11.452;2022-11-15T04:00:22;3.00;99.90
30473;DHT22;17263;48.160;11.452;2022-11-15T04:02:48;3.00;99.90
30473;DHT22;17263;48.160;11.452;2022-11-15T04:05:14;3.00;99.90
30473;DHT22;17263;48.160;11.452;2022-11-15T04:07:40;3.00;99.90
30473;DHT22;17263;48.160;11.452;2022-11-15T04:10:07;3.00;99.90
30473;DHT22;17263;48.160;11.452;2022-11-15T04:12:36;3.00;99.90
30473;DHT22;17263;48.160;11.452;2022-11-15T04:15:15;3.00;99.90
30473;DHT22;17263;48.160;11.452;2022-11-15T04:17:45;3.10;99.90
30473;DHT22;17263;48.160;11.452;2022-11-15T04:20:17;3.10;99.90
30473;DHT22;17263;48.160;11.452;2022-11-15T04:23:11;3.00;99.90
30473;DHT22;17263;48.160;11.452;2022-11-15T04:25:59;2.90;99.90
30473;DHT22;17263;48.160;11.452;2022-11-15T04:28:25;2.90;99.90
30473;DHT22;17263;48.160;11.452;2022-11-15T04:30:52;2.90;99.90
30473;DHT22;17263;48.160;11.452;2022-11-15T04:33:18;2.90;99.90
30473;DHT22;17263;48.160;11.452;2022-11-15T04:35:44;2.80;99.90
30473;DHT22;17263;48.160;11.452;2022-11-15T04:38:30;2.80;99.90
30473;DHT22;17263;48.160;11.452;2022-11-15T04:40:56;2.80;99.90
30473;DHT22;17263;48.160;11.452;2022-11-15T04:43:22;2.80;99.90
30473;DHT22;17263;48.160;11.452;2022-11-15T04:45:48;2.80;99.90
30473;DHT22;17263;48.160;11.452;2022-11-15T04:48:14;2.70;99.90
30473;DHT22;17263;48.160;11.452;2022-11-15T04:50:40;2.80;99.90
30473;DHT22;17263;48.160;11.452;2022-11-15T04:53:06;2.80;99.90
30473;DHT22;17263;48.160;11.452;2022-11-15T04:55:32;2.70;99.90
30473;DHT22;17263;48.160;11.452;2022-11-15T04:58:02;2.70;99.90
30473;DHT22;17263;48.160;11.452;2022-11-15T05:00:29;2.70;99.90
30473;DHT22;17263;48.160;11.452;2022-11-15T05:02:56;2.70;99.90
30473;DHT22;17263;48.160;11.452;2022-11-15T05:05:41;2.70;99.90
30473;DHT22;17263;48.160;11.452;2022-11-15T05:08:07;2.70;99.90
30473;DHT22;17263;48.160;11.452;2022-11-15T05:10:33;2.60;99.90
30473;DHT22;17263;48.160;11.452;2022-11-15T05:12:59;2.60;99.90
30473;DHT22;17263;48.160;11.452;2022-11-15T05:15:25;2.60;99.90
30473;DHT22;17263;48.160;11.452;2022-11-15T05:17:57;2.60;99.90
30473;DHT22;17263;48.160;11.452;2022-11-15T05:20:23;2.60;99.90
30473;DHT22;17263;48.160;11.452;2022-11-15T05:22:49;2.50;99.90
30473;DHT22;17263;48.160;11.452;2022-11-15T05:25:15;2.50;99.90
30473;DHT22;17263;48.160;11.452;2022-11-15T05:27:41;2.50;99.90
30473;DHT22;17263;48.160;11.452;2022-11-15T05:30:08;2.50;99.90
30473;DHT22;17263;48.160;11.452;2022-11-15T05:32:34;2.50;99.90
30473;DHT22;17263;48.160;11.452;2022-11-15T05:35:00;2.50;99.90
30473;DHT22;17263;48.160;11.452;2022-11-15T05:37:26;2.50;99.90
30473;DHT22;17263;48.160;11.452;2022-11-15T05:39:52;2.40;99.90
30473;DHT22;17263;48.160;11.452;2022-11-15T05:42:18;2.40;99.90
30473;DHT22;17263;48.160;11.452;2022-11-15T05:44:48;2.40;99.90
30473;DHT22;17263;48.160;11.452;2022-11-15T05:47:23;2.40;99.90
30473;DHT22;17263;48.160;11.452;2022-11-15T05:49:50;2.40;99.90
30473;DHT22;17263;48.160;11.452;2022-11-15T05:52:20;2.40;99.90
30473;DHT22;17263;48.160;11.452;2022-11-15T05:54:48;2.40;99.90
30473;DHT22;17263;48.160;11.452;2022-11-15T05:57:15;2.40;99.90
30473;DHT22;17263;48.160;11.452;2022-11-15T05:59:42;2.40;99.90
30473;DHT22;17263;48.160;11.452;2022-11-15T06:02:10;2.40;99.90
30473;DHT22;17263;48.160;11.452;2022-11-15T06:04:36;2.40;99.90
30473;DHT22;17263;48.160;11.452;2022-11-15T06:07:02;2.40;99.90
30473;DHT22;17263;48.160;11.452;2022-11-15T06:09:28;2.40;99.90
30473;DHT22;17263;48.160;11.452;2022-11-15T06:11:54;2.40;99.90
30473;DHT22;17263;48.160;11.452;2022-11-15T06:14:20;2.50;99.90
30473;DHT22;17263;48.160;11.452;2022-11-15T06:16:46;2.50;99.90
30473;DHT22;17263;48.160;11.452;2022-11-15T06:19:12;2.40;99.90
30473;DHT22;17263;48.160;11.452;2022-11-15T06:21:38;2.40;99.90
30473;DHT22;17263;48.160;11.452;2022-11-15T06:24:05;2.40;99.90
30473;DHT22;17263;48.160;11.452;2022-11-15T06:26:31;2.50;99.90
30473;DHT22;17263;48.160;11.452;2022-11-15T06:28:57;2.50;99.90
30473;DHT22;17263;48.160;11.452;2022-11-15T06:31:23;2.50;99.90
30473;DHT22;17263;48.160;11.452;2022-11-15T06:33:49;2.50;99.90
30473;DHT22;17263;48.160;11.452;2022-11-15T06:36:16;2.50;99.90
30473;DHT22;17263;48.160;11.452;2022-11-15T06:38:43;2.50;99.90
30473;DHT22;17263;48.160;11.452;2022-11-15T06:41:10;2.60;99.90
30473;DHT22;17263;48.160;11.452;2022-11-15T06:43:37;2.60;99.90
30473;DHT22;17263;48.160;11.452;2022-11-15T06:46:04;2.60;99.90
30473;DHT22;17263;48.160;11.452;2022-11-15T06:48:33;2.60;99.90
30473;DHT22;17263;48.160;11.452;2022-11-15T06:51:00;2.70;99.90
30473;DHT22;17263;48.160;11.452;2022-11-15T06:53:27;2.70;99.90
30473;DHT22;17263;48.160;11.452;2022-11-15T06:55:56;2.70;99.90
30473;DHT22;17263;48.160;11.452;2022-11-15T06:58:23;2.80;99.90
30473;DHT22;17263;48.160;11.452;2022-11-15T07:00:49;2.80;99.90
30473;DHT22;17263;48.160;11.452;2022-11-15T07:03:15;2.80;99.90
30473;DHT22;17263;48.160;11.452;2022-11-15T07:05:41;2.80;99.90
30473;DHT22;17263;48.160;11.452;2022-11-15T07:08:07;2.90;99.90
30473;DHT22;17263;48.160;11.452;2022-11-15T07:10:34;2.90;99.90
30473;DHT22;17263;48.160;11.452;2022-11-15T07:13:00;3.00;99.90
30473;DHT22;17263;48.160;11.452;2022-11-15T07:15:26;3.00;99.90
30473;DHT22;17263;48.160;11.452;2022-11-15T07:17:52;3.10;99.90
30473;DHT22;17263;48.160;11.452;2022-11-15T07:20:18;3.10;99.90
30473;DHT22;17263;48.160;11.452;2022-11-15T07:22:44;3.20;99.90
30473;DHT22;17263;48.160;11.452;2022-11-15T07:25:11;3.20;99.90
30473;DHT22;17263;48.160;11.452;2022-11-15T07:27:37;3.30;99.90
30473;DHT22;17263;48.160;11.452;2022-11-15T07:30:04;3.40;99.90
30473;DHT22;17263;48.160;11.452;2022-11-15T07:32:31;3.40;99.90
30473;DHT22;17263;48.160;11.452;2022-11-15T07:34:57;3.50;99.90
30473;DHT22;17263;48.160;11.452;2022-11-15T07:37:23;3.50;99.90
30473;DHT22;17263;48.160;11.452;2022-11-15T07:39:50;3.60;99.90
30473;DHT22;17263;48.160;11.452;2022-11-15T07:42:16;3.70;99.90
30473;DHT22;17263;48.160;11.452;2022-11-15T07:45:11;3.80;99.90
30473;DHT22;17263;48.160;11.452;2022-11-15T07:47:46;3.90;99.90
30473;DHT22;17263;48.160;11.452;2022-11-15T07:50:12;4.00;99.90
30473;DHT22;17263;48.160;11.452;2022-11-15T07:52:38;4.20;99.90
30473;DHT22;17263;48.160;11.452;2022-11-15T07:55:04;4.30;99.90
30473;DHT22;17263;48.160;11.452;2022-11-15T07:57:30;4.40;99.90
30473;DHT22;17263;48.160;11.452;2022-11-15T07:59:56;4.50;99.90
30473;DHT22;17263;48.160;11.452;2022-11-15T08:02:22;4.70;99.90
30473;DHT22;17263;48.160;11.452;2022-11-15T08:04:48;4.80;99.90
30473;DHT22;17263;48.160;11.452;2022-11-15T08:07:14;5.00;99.90
30473;DHT22;17263;48.160;11.452;2022-11-15T08:09:41;5.20;99.90
30473;DHT22;17263;48.160;11.452;2022-11-15T08:12:07;5.50;99.90
30473;DHT22;17263;48.160;11.452;2022-11-15T08:14:35;5.90;99.90
30473;DHT22;17263;48.160;11.452;2022-11-15T08:17:01;6.60;99.90
30473;DHT22;17263;48.160;11.452;2022-11-15T08:19:27;7.50;99.90
30473;DHT22;17263;48.160;11.452;2022-11-15T08:21:53;8.20;99.90
30473;DHT22;17263;48.160;11.452;2022-11-15T08:24:19;8.80;99.90
30473;DHT22;17263;48.160;11.452;2022-11-15T08:26:46;9.40;99.90
30473;DHT22;17263;48.160;11.452;2022-11-15T08:29:12;9.60;99.90
30473;DHT22;17263;48.160;11.452;2022-11-15T08:31:38;9.60;99.90
30473;DHT22;17263;48.160;11.452;2022-11-15T08:34:05;9.40;99.90
30473;DHT22;17263;48.160;11.452;2022-11-15T08:36:31;9.20;99.90
30473;DHT22;17263;48.160;11.452;2022-11-15T08:38:57;9.00;99.90
30473;DHT22;17263;48.160;11.452;2022-11-15T08:41:35;8.90;99.90
30473;DHT22;17263;48.160;11.452;2022-11-15T08:44:02;8.80;99.90
30473;DHT22;17263;48.160;11.452;2022-11-15T08:46:28;8.70;99.90
30473;DHT22;17263;48.160;11.452;2022-11-15T08:48:54;8.60;99.90
30473;DHT22;17263;48.160;11.452;2022-11-15T08:51:20;8.60;99.90
30473;DHT22;17263;48.160;11.452;2022-11-15T08:53:46;8.50;99.90
30473;DHT22;17263;48.160;11.452;2022-11-15T08:56:14;8.50;99.90
30473;DHT22;17263;48.160;11.452;2022-11-15T08:58:40;8.50;99.90
30473;DHT22;17263;48.160;11.452;2022-11-15T09:01:16;8.50;99.90
30473;DHT22;17263;48.160;11.452;2022-11-15T09:03:42;8.50;99.90
30473;DHT22;17263;48.160;11.452;2022-11-15T09:06:08;8.60;99.90
30473;DHT22;17263;48.160;11.452;2022-11-15T09:08:34;8.70;99.90
30473;DHT22;17263;48.160;11.452;2022-11-15T09:11:08;8.80;99.90
30473;DHT22;17263;48.160;11.452;2022-11-15T09:13:35;8.80;99.90
30473;DHT22;17263;48.160;11.452;2022-11-15T09:16:05;8.90;99.90
30473;DHT22;17263;48.160;11.452;2022-11-15T09:18:31;8.90;99.90
30473;DHT22;17263;48.160;11.452;2022-11-15T09:20:58;9.00;99.90
30473;DHT22;17263;48.160;11.452;2022-11-15T09:23:24;9.00;99.90
30473;DHT22;17263;48.160;11.452;2022-11-15T09:25:51;9.00;99.90
30473;DHT22;17263;48.160;11.452;2022-11-15T09:28:18;9.00;99.90
30473;DHT22;17263;48.160;11.452;2022-11-15T09:30:44;8.90;99.90
30473;DHT22;17263;48.160;11.452;2022-11-15T09:33:11;8.90;99.90
30473;DHT22;17263;48.160;11.452;2022-11-15T09:35:38;8.90;99.90
30473;DHT22;17263;48.160;11.452;2022-11-15T09:38:04;8.90;99.90
30473;DHT22;17263;48.160;11.452;2022-11-15T09:40:31;8.90;99.90
30473;DHT22;17263;48.160;11.452;2022-11-15T09:45:57;9.00;99.90
30473;DHT22;17263;48.160;11.452;2022-11-15T09:48:49;9.00;99.90
30473;DHT22;17263;48.160;11.452;2022-11-15T09:51:34;9.00;99.90
30473;DHT22;17263;48.160;11.452;2022-11-15T09:54:02;9.10;99.90
30473;DHT22;17263;48.160;11.452;2022-11-15T09:56:31;9.10;99.90
30473;DHT22;17263;48.160;11.452;2022-11-15T09:59:23;9.20;99.90
30473;DHT22;17263;48.160;11.452;2022-11-15T10:05:01;9.20;99.90
30473;DHT22;17263;48.160;11.452;2022-11-15T10:10:23;9.40;99.90
30473;DHT22;17263;48.160;11.452;2022-11-15T10:12:52;9.50;99.90
30473;DHT22;17263;48.160;11.452;2022-11-15T10:15:18;9.50;99.90
30473;DHT22;17263;48.160;11.452;2022-11-15T10:20:29;9.60;99.90
30473;DHT22;17263;48.160;11.452;2022-11-15T10:23:00;9.70;99.90
30473;DHT22;17263;48.160;11.452;2022-11-15T10:25:29;9.80;99.90
30473;DHT22;17263;48.160;11.452;2022-11-15T10:30:45;9.90;99.90
30473;DHT22;17263;48.160;11.452;2022-11-15T10:36:25;10.00;99.90
30473;DHT22;17263;48.160;11.452;2022-11-15T10:38:54;10.00;99.90
30473;DHT22;17263;48.160;11.452;2022-11-15T10:46:48;10.10;99.90
30473;DHT22;17263;48.160;11.452;2022-11-15T10:49:31;10.30;99.90
30473;DHT22;17263;48.160;11.452;2022-11-15T10:52:19;10.30;99.90
30473;DHT22;17263;48.160;11.452;2022-11-15T10:54:49;10.50;99.90
30473;DHT22;17263;48.160;11.452;2022-11-15T10:57:26;10.70;99.90
30473;DHT22;17263;48.160;11.452;2022-11-15T10:59:56;10.90;99.90
30473;DHT22;17263;48.160;11.452;2022-11-15T11:02:36;11.00;99.90
30473;DHT22;17263;48.160;11.452;2022-11-15T11:05:05;11.10;99.90
30473;DHT22;17263;48.160;11.452;2022-11-15T11:07:34;11.20;99.90
30473;DHT22;17263;48.160;11.452;2022-11-15T11:10:21;11.20;99.90
30473;DHT22;17263;48.160;11.452;2022-11-15T11:12:47;11.30;99.90
30473;DHT22;17263;48.160;11.452;2022-11-15T11:15:15;11.40;99.90
30473;DHT22;17263;48.160;11.452;2022-11-15T11:18:23;11.40;99.90
30473;DHT22;17263;48.160;11.452;2022-11-15T11:21:00;11.60;99.90
30473;DHT22;17263;48.160;11.452;2022-11-15T11:23:53;11.70;99.90
30473;DHT22;17263;48.160;11.452;2022-11-15T11:32:05;12.00;99.90
30473;DHT22;17263;48.160;11.452;2022-11-15T11:40:16;12.30;99.90
30473;DHT22;17263;48.160;11.452;2022-11-15T11:48:13;12.60;99.90
30473;DHT22;17263;48.160;11.452;2022-11-15T11:50:41;12.60;99.90
30473;DHT22;17263;48.160;11.452;2022-11-15T11:53:15;12.60;99.90
30473;DHT22;17263;48.160;11.452;2022-11-15T11:55:45;12.70;99.90
30473;DHT22;17263;48.160;11.452;2022-11-15T11:58:42;12.70;99.90
30473;DHT22;17263;48.160;11.452;2022-11-15T12:03:56;12.80;99.90
30473;DHT22;17263;48.160;11.452;2022-11-15T12:06:42;12.80;99.90
30473;DHT22;17263;48.160;11.452;2022-11-15T12:09:30;12.90;99.90
30473;DHT22;17263;48.160;11.452;2022-11-15T12:14:50;12.90;99.90
30473;DHT22;17263;48.160;11.452;2022-11-15T12:17:37;12.90;99.90
30473;DHT22;17263;48.160;11.452;2022-11-15T12:20:25;12.90;99.90
30473;DHT22;17263;48.160;11.452;2022-11-15T12:23:08;12.90;99.90
30473;DHT22;17263;48.160;11.452;2022-11-15T12:25:53;13.00;99.90
30473;DHT22;17263;48.160;11.452;2022-11-15T12:31:23;13.00;99.90
30473;DHT22;17263;48.160;11.452;2022-11-15T12:33:55;13.00;99.90
30473;DHT22;17263;48.160;11.452;2022-11-15T12:41:30;13.00;99.90
30473;DHT22;17263;48.160;11.452;2022-11-15T12:43:57;12.90;99.90
30473;DHT22;17263;48.160;11.452;2022-11-15T12:49:02;12.80;99.90
30473;DHT22;17263;48.160;11.452;2022-11-15T12:59:55;13.00;99.90
30473;DHT22;17263;48.160;11.452;2022-11-15T13:02:37;12.90;99.90
30473;DHT22;17263;48.160;11.452;2022-11-15T13:12:54;13.10;99.90
30473;DHT22;17263;48.160;11.452;2022-11-15T13:17:52;13.20;99.90
30473;DHT22;17263;48.160;11.452;2022-11-15T13:20:29;13.20;99.90
30473;DHT22;17263;48.160;11.452;2022-11-15T13:30:50;13.20;99.90
30473;DHT22;17263;48.160;11.452;2022-11-15T13:33:33;13.40;99.90
30473;DHT22;17263;48.160;11.452;2022-11-15T13:36:06;13.40;99.90
30473;DHT22;17263;48.160;11.452;2022-11-15T13:38:36;13.40;99.90
30473;DHT22;17263;48.160;11.452;2022-11-15T13:41:18;13.40;99.90
30473;DHT22;17263;48.160;11.452;2022-11-15T13:43:46;13.40;99.90
30473;DHT22;17263;48.160;11.452;2022-11-15T13:46:33;13.20;99.90
30473;DHT22;17263;48.160;11.452;2022-11-15T13:49:07;13.20;99.90
30473;DHT22;17263;48.160;11.452;2022-11-15T13:56:53;13.00;99.90
30473;DHT22;17263;48.160;11.452;2022-11-15T13:59:35;12.90;99.90
30473;DHT22;17263;48.160;11.452;2022-11-15T14:02:12;12.80;99.90
30473;DHT22;17263;48.160;11.452;2022-11-15T14:04:50;12.70;99.90
30473;DHT22;17263;48.160;11.452;2022-11-15T14:07:19;12.60;99.90
30473;DHT22;17263;48.160;11.452;2022-11-15T14:09:53;12.50;99.90
30473;DHT22;17263;48.160;11.452;2022-11-15T14:12:26;12.40;99.90
30473;DHT22;17263;48.160;11.452;2022-11-15T14:14:53;12.20;99.90
30473;DHT22;17263;48.160;11.452;2022-11-15T14:19:59;12.10;99.90
30473;DHT22;17263;48.160;11.452;2022-11-15T14:22:29;12.10;99.90
30473;DHT22;17263;48.160;11.452;2022-11-15T14:25:18;12.00;99.90
30473;DHT22;17263;48.160;11.452;2022-11-15T14:28:09;11.90;99.90
30473;DHT22;17263;48.160;11.452;2022-11-15T14:30:35;11.80;99.90
30473;DHT22;17263;48.160;11.452;2022-11-15T14:33:01;11.70;99.90
30473;DHT22;17263;48.160;11.452;2022-11-15T14:35:28;11.60;99.90
30473;DHT22;17263;48.160;11.452;2022-11-15T14:37:54;11.50;99.90
30473;DHT22;17263;48.160;11.452;2022-11-15T14:40:21;11.60;99.90
30473;DHT22;17263;48.160;11.452;2022-11-15T14:42:49;11.60;99.90
30473;DHT22;17263;48.160;11.452;2022-11-15T14:45:16;11.50;99.90
30473;DHT22;17263;48.160;11.452;2022-11-15T14:47:43;11.40;99.90
30473;DHT22;17263;48.160;11.452;2022-11-15T14:50:14;11.30;99.90
30473;DHT22;17263;48.160;11.452;2022-11-15T14:52:40;11.20;99.90
30473;DHT22;17263;48.160;11.452;2022-11-15T14:55:31;11.00;99.90
30473;DHT22;17263;48.160;11.452;2022-11-15T14:57:59;11.00;99.90
30473;DHT22;17263;48.160;11.452;2022-11-15T15:00:25;10.90;99.90
30473;DHT22;17263;48.160;11.452;2022-11-15T15:02:53;10.70;99.90
30473;DHT22;17263;48.160;11.452;2022-11-15T15:05:22;10.60;99.90
30473;DHT22;17263;48.160;11.452;2022-11-15T15:07:49;10.50;99.90
30473;DHT22;17263;48.160;11.452;2022-11-15T15:10:16;10.40;99.90
30473;DHT22;17263;48.160;11.452;2022-11-15T15:12:43;10.30;99.90
30473;DHT22;17263;48.160;11.452;2022-11-15T15:15:17;10.20;99.90
30473;DHT22;17263;48.160;11.452;2022-11-15T15:17:45;10.10;99.90
30473;DHT22;17263;48.160;11.452;2022-11-15T15:20:11;10.00;99.90
30473;DHT22;17263;48.160;11.452;2022-11-15T15:22:38;9.90;99.90
30473;DHT22;17263;48.160;11.452;2022-11-15T15:27:48;9.70;99.90
30473;DHT22;17263;48.160;11.452;2022-11-15T15:30:15;9.60;99.90
30473;DHT22;17263;48.160;11.452;2022-11-15T15:32:41;9.50;99.90
30473;DHT22;17263;48.160;11.452;2022-11-15T15:35:10;9.50;99.90
30473;DHT22;17263;48.160;11.452;2022-11-15T15:37:36;9.40;99.90
30473;DHT22;17263;48.160;11.452;2022-11-15T15:40:02;9.30;99.90
30473;DHT22;17263;48.160;11.452;2022-11-15T15:42:28;9.20;99.90
30473;DHT22;17263;48.160;11.452;2022-11-15T15:44:54;9.10;99.90
30473;DHT22;17263;48.160;11.452;2022-11-15T15:47:22;9.10;99.90
30473;DHT22;17263;48.160;11.452;2022-11-15T15:49:49;9.00;99.90
30473;DHT22;17263;48.160;11.452;2022-11-15T15:52:16;8.90;99.90
30473;DHT22;17263;48.160;11.452;2022-11-15T15:54:42;8.90;99.90
30473;DHT22;17263;48.160;11.452;2022-11-15T15:57:12;8.80;99.90
30473;DHT22;17263;48.160;11.452;2022-11-15T15:59:38;8.80;99.90
30473;DHT22;17263;48.160;11.452;2022-11-15T16:02:04;8.80;99.90
30473;DHT22;17263;48.160;11.452;2022-11-15T16:04:30;8.80;99.90
30473;DHT22;17263;48.160;11.452;2022-11-15T16:07:00;8.70;99.90
30473;DHT22;17263;48.160;11.452;2022-11-15T16:09:26;8.70;99.90
30473;DHT22;17263;48.160;11.452;2022-11-15T16:12:11;8.60;99.90
30473;DHT22;17263;48.160;11.452;2022-11-15T16:14:37;8.50;99.90
30473;DHT22;17263;48.160;11.452;2022-11-15T16:17:05;8.50;99.90
30473;DHT22;17263;48.160;11.452;2022-11-15T16:19:31;8.50;99.90
30473;DHT22;17263;48.160;11.452;2022-11-15T16:21:57;8.50;99.90
30473;DHT22;17263;48.160;11.452;2022-11-15T16:24:23;8.50;99.90
30473;DHT22;17263;48.160;11.452;2022-11-15T16:26:49;8.50;99.90
30473;DHT22;17263;48.160;11.452;2022-11-15T16:29:16;8.40;99.90
30473;DHT22;17263;48.160;11.452;2022-11-15T16:31:42;8.40;99.90
30473;DHT22;17263;48.160;11.452;2022-11-15T16:34:08;8.40;99.90
30473;DHT22;17263;48.160;11.452;2022-11-15T16:36:34;8.40;99.90
30473;DHT22;17263;48.160;11.452;2022-11-15T16:39:02;8.30;99.90
30473;DHT22;17263;48.160;11.452;2022-11-15T16:41:31;8.30;99.90
30473;DHT22;17263;48.160;11.452;2022-11-15T16:43:57;8.30;99.90
30473;DHT22;17263;48.160;11.452;2022-11-15T16:46:25;8.30;99.90
30473;DHT22;17263;48.160;11.452;2022-11-15T16:48:52;8.30;99.90
30473;DHT22;17263;48.160;11.452;2022-11-15T16:51:19;8.30;99.90
30473;DHT22;17263;48.160;11.452;2022-11-15T16:53:45;8.30;99.90
30473;DHT22;17263;48.160;11.452;2022-11-15T16:56:25;8.20;99.90
30473;DHT22;17263;48.160;11.452;2022-11-15T16:58:52;8.20;99.90
30473;DHT22;17263;48.160;11.452;2022-11-15T17:01:24;8.20;99.90
30473;DHT22;17263;48.160;11.452;2022-11-15T17:03:50;8.20;99.90
30473;DHT22;17263;48.160;11.452;2022-11-15T17:06:17;8.20;99.90
30473;DHT22;17263;48.160;11.452;2022-11-15T17:08:44;8.10;99.90
30473;DHT22;17263;48.160;11.452;2022-11-15T17:11:14;8.10;99.90
30473;DHT22;17263;48.160;11.452;2022-11-15T17:13:41;8.10;99.90
30473;DHT22;17263;48.160;11.452;2022-11-15T17:16:11;8.00;99.90
30473;DHT22;17263;48.160;11.452;2022-11-15T17:18:38;8.00;99.90
30473;DHT22;17263;48.160;11.452;2022-11-15T17:21:14;7.90;99.90
30473;DHT22;17263;48.160;11.452;2022-11-15T17:23:41;7.90;99.90
30473;DHT22;17263;48.160;11.452;2022-11-15T17:26:09;7.90;99.90
30473;DHT22;17263;48.160;11.452;2022-11-15T17:28:37;7.90;99.90
30473;DHT22;17263;48.160;11.452;2022-11-15T17:31:08;7.90;99.90
30473;DHT22;17263;48.160;11.452;2022-11-15T17:33:34;7.80;99.90
30473;DHT22;17263;48.160;11.452;2022-11-15T17:36:04;7.80;99.90
30473;DHT22;17263;48.160;11.452;2022-11-15T17:38:31;7.80;99.90
30473;DHT22;17263;48.160;11.452;2022-11-15T17:41:05;7.80;99.90